^^
Station Historical Data
Daily Summary for September 22, 2017 Units:  Metric    English   Both
« Previous Day
Next Day »
Daily Weekly Monthly Yearly Custom
  High: Low: Average:
Temperature: 24.3 °C 15.6 °C 18.7 °C
Dew Point: 9 °C 0.9 °C 5.8 °C
Humidity: 62% 23% 44%
Wind Speed: 43.6km/h 0km/h 10.3km/h
Wind Gust: 43.6km/h - -
Wind- - SSW
Pressure: 1017.8 hPa 1010 hPa -
Precipitation: 0 mm    
Historical Graphs
 
 
Tabular Data for September 22, 2017
Time Temperature Dew Point Pressure Wind Wind Speed Wind Gust Humidity Rainfall Rate (Hourly) solar Conditions
00:04 18.9 °C 6.7 °C 1010.7 hPa SSW 16.3 km/h 17.7 km/h 45% 0 mm 0.0 W/m2
00:09 18.9 °C 6.7 °C 1010.7 hPa SSW 13 km/h 16.1 km/h 45% 0 mm 0.0 W/m2
00:14 18.8 °C 6.6 °C 1010.7 hPa SSW 11.1 km/h 12.9 km/h 45% 0 mm 0.0 W/m2
00:20 18.8 °C 6.6 °C 1010.4 hPa SSW 7.9 km/h 14.5 km/h 45% 0 mm 0.0 W/m2
00:25 18.8 °C 6.9 °C 1010.4 hPa SSW 11.1 km/h 14.5 km/h 46% 0 mm 0.0 W/m2
00:31 18.7 °C 6.8 °C 1010.4 hPa SSW 9.7 km/h 14.5 km/h 46% 0 mm 0.0 W/m2
00:41 18.8 °C 6.6 °C 1010.7 hPa SSW 7.9 km/h 11.3 km/h 45% 0 mm 0.0 W/m2
00:49 18.8 °C 6.3 °C 1010.4 hPa SSW 11.1 km/h 16.1 km/h 44% 0 mm 0.0 W/m2
00:59 18.9 °C 6 °C 1010.4 hPa SSW 11.1 km/h 16.1 km/h 43% 0 mm 0.0 W/m2
01:05 19 °C 6.1 °C 1010.4 hPa SSW 9.7 km/h 11.3 km/h 43% 0 mm 0.0 W/m2
01:14 19 °C 6.1 °C 1010.4 hPa SSW 11.1 km/h 12.9 km/h 43% 0 mm 0.0 W/m2
01:19 19 °C 6.1 °C 1010 hPa SSW 6.4 km/h 8 km/h 43% 0 mm 0.0 W/m2
01:24 19 °C 6.1 °C 1010 hPa SSW 4.7 km/h 6.4 km/h 43% 0 mm 0.0 W/m2
01:34 18.9 °C 6.4 °C 1010.4 hPa SSW 11.1 km/h 16.1 km/h 44% 0 mm 0.0 W/m2
01:39 18.8 °C 6.3 °C 1010.4 hPa SSW 9.7 km/h 14.5 km/h 44% 0 mm 0.0 W/m2
01:44 18.8 °C 6.6 °C 1010.4 hPa SSW 13 km/h 16.1 km/h 45% 0 mm 0.0 W/m2
01:54 18.6 °C 6.4 °C 1010.4 hPa SSW 11.1 km/h 14.5 km/h 45% 0 mm 0.0 W/m2
02:05 18.4 °C 6.6 °C 1010.7 hPa SSW 14.3 km/h 14.5 km/h 46% 0 mm 0.0 W/m2
02:10 18.4 °C 6.6 °C 1010.7 hPa SSW 11.1 km/h 14.5 km/h 46% 0 mm 0.0 W/m2
02:20 18.2 °C 6.4 °C 1010.7 hPa SSW 16.3 km/h 19.3 km/h 46% 0 mm 0.0 W/m2
02:35 18.1 °C 6.6 °C 1010.7 hPa SSW 13 km/h 19.3 km/h 47% 0 mm 0.0 W/m2
02:40 18.1 °C 6.6 °C 1010.7 hPa SSW 14.3 km/h 19.3 km/h 47% 0 mm 0.0 W/m2
02:45 18.1 °C 6.9 °C 1010.7 hPa SSW 9.7 km/h 17.7 km/h 48% 0 mm 0.0 W/m2
02:50 18 °C 6.8 °C 1010.7 hPa SSW 9.7 km/h 12.9 km/h 48% 0 mm 0.0 W/m2
02:55 17.9 °C 6.7 °C 1010.4 hPa SSW 7.9 km/h 11.3 km/h 48% 0 mm 0.0 W/m2
03:00 17.9 °C 6.4 °C 1010.4 hPa SSW 7.9 km/h 9.7 km/h 47% 0 mm 0.0 W/m2
03:10 18 °C 6.2 °C 1010.4 hPa SSW 11.1 km/h 11.3 km/h 46% 0 mm 0.0 W/m2
03:15 18 °C 6.2 °C 1010.4 hPa SSW 9.7 km/h 9.7 km/h 46% 0 mm 0.0 W/m2
03:21 17.9 °C 6.4 °C 1010.7 hPa SSW 6.4 km/h 9.7 km/h 47% 0 mm 0.0 W/m2
03:26 17.8 °C 6.3 °C 1010.7 hPa SSW 6.4 km/h 12.9 km/h 47% 0 mm 0.0 W/m2
03:31 17.7 °C 6.2 °C 1010.7 hPa SSW 7.9 km/h 8 km/h 47% 0 mm 0.0 W/m2
03:36 17.6 °C 6.2 °C 1010.4 hPa SSW 6.4 km/h 9.7 km/h 47% 0 mm 0.0 W/m2
03:46 17.5 °C 6.4 °C 1010.7 hPa SSW 13 km/h 14.5 km/h 48% 0 mm 0.0 W/m2
03:51 17.5 °C 6.4 °C 1010.4 hPa SSW 9.7 km/h 12.9 km/h 48% 0 mm 0.0 W/m2
03:56 17.5 °C 6.4 °C 1010 hPa SSW 6.4 km/h 8 km/h 48% 0 mm 0.0 W/m2
04:01 17.4 °C 6.3 °C 1010.4 hPa SSW 13 km/h 17.7 km/h 48% 0 mm 0.0 W/m2
04:06 17.4 °C 6.3 °C 1010.4 hPa SSW 7.9 km/h 11.3 km/h 48% 0 mm 0.0 W/m2
04:11 17.4 °C 6.6 °C 1010.7 hPa SSW 14.3 km/h 17.7 km/h 49% 0 mm 0.0 W/m2
04:16 17.3 °C 6.5 °C 1010.7 hPa SSW 13 km/h 17.7 km/h 49% 0 mm 0.0 W/m2
04:21 17.3 °C 6.5 °C 1010.7 hPa SSW 9.7 km/h 11.3 km/h 49% 0 mm 0.0 W/m2
04:26 17.3 °C 6.5 °C 1010.7 hPa SSW 11.1 km/h 12.9 km/h 49% 0 mm 0.0 W/m2
04:32 17.2 °C 6.1 °C 1010.7 hPa SSW 7.9 km/h 9.7 km/h 48% 0 mm 0.0 W/m2
04:37 17.2 °C 6.1 °C 1010.7 hPa SSW 4.7 km/h 9.7 km/h 48% 0 mm 0.0 W/m2
04:42 17.2 °C 6.1 °C 1010.7 hPa SSW 6.4 km/h 6.4 km/h 48% 0 mm 0.0 W/m2
04:47 17.1 °C 6 °C 1010.4 hPa SSW 6.4 km/h 6.4 km/h 48% 0 mm 0.0 W/m2
04:52 17.1 °C 6 °C 1010.4 hPa Calm   3.2 km/h 48% 0 mm 0.0 W/m2
04:57 17 °C 5.9 °C 1010.4 hPa Calm     48% 0 mm 0.0 W/m2
05:02 16.9 °C 5.8 °C 1010.4 hPa Calm     48% 0 mm 0.0 W/m2
05:07 16.8 °C 5.7 °C 1010.4 hPa SSW 3.2 km/h 3.2 km/h 48% 0 mm 0.0 W/m2
05:18 16.7 °C 5.6 °C 1010.4 hPa Calm     48% 0 mm 0.0 W/m2
05:23 16.6 °C 5.8 °C 1010.4 hPa Calm     49% 0 mm 0.0 W/m2
05:28 16.6 °C 5.8 °C 1010.4 hPa Calm     49% 0 mm 0.0 W/m2
05:33 16.6 °C 5.8 °C 1010.4 hPa Calm     49% 0 mm 0.0 W/m2
05:38 16.6 °C 5.8 °C 1010.7 hPa Calm     49% 0 mm 0.0 W/m2
05:43 16.4 °C 5.4 °C 1010.7 hPa Calm     48% 0 mm 0.0 W/m2
05:48 16.4 °C 5.1 °C 1011.1 hPa Calm     47% 0 mm 0.0 W/m2
05:54 16.6 °C 4.9 °C 1011.1 hPa Calm     46% 0 mm 0.0 W/m2
05:59 17.1 °C 5.1 °C 1011.4 hPa Calm     45% 0 mm 0.0 W/m2
06:04 17.3 °C 4.9 °C 1011.4 hPa Calm     44% 0 mm 0.0 W/m2
06:09 17.3 °C 5.3 °C 1011.4 hPa Calm     45% 0 mm 0.0 W/m2
06:14 17.2 °C 4.8 °C 1011.4 hPa Calm     44% 0 mm 0.0 W/m2
06:19 17 °C 4.7 °C 1011.4 hPa Calm     44% 0 mm 0.0 W/m2
06:29 16.4 °C 5.1 °C 1011.7 hPa Calm     47% 0 mm 0.0 W/m2
06:34 16.3 °C 5 °C 1012.1 hPa Calm     47% 0 mm 0.0 W/m2
06:40 16.2 °C 4.9 °C 1012.4 hPa Calm     47% 0 mm 0.0 W/m2
06:45 16.2 °C 4.9 °C 1012.4 hPa Calm     47% 0 mm 0.0 W/m2
06:50 16.1 °C 4.8 °C 1012.1 hPa Calm     47% 0 mm 7.0 W/m2
06:56 15.9 °C 4.9 °C 1012.1 hPa Calm     48% 0 mm 11.0 W/m2
07:01 15.8 °C 4.8 °C 1012.1 hPa Calm     48% 0 mm 16.0 W/m2
07:10 15.6 °C 4.6 °C 1012.4 hPa Calm     48% 0 mm 33.0 W/m2
07:11 15.7 °C 5 °C 1012.4 hPa Calm     49% 0 mm 26.0 W/m2
07:17 15.6 °C 4.6 °C 1012.4 hPa Calm     48% 0 mm 33.0 W/m2
07:25 15.6 °C 4.9 °C 1012.8 hPa Calm     49% 0 mm 49.0 W/m2
07:41 15.8 °C 5.1 °C 1012.8 hPa Calm     49% 0 mm 102.0 W/m2
08:03 16.4 °C 5.4 °C 1012.8 hPa Calm     48% 0 mm 105.0 W/m2
08:11 17.3 °C 5.6 °C 1012.8 hPa Calm     46% 0 mm 181.0 W/m2
08:27 18.2 °C 5.7 °C 1013.1 hPa Calm     44% 0 mm 229.0 W/m2
08:35 18.2 °C 5.7 °C 1013.1 hPa Calm     44% 0 mm 229.0 W/m2
08:47 19.4 °C 5.5 °C 1012.8 hPa Calm     40% 0 mm 315.0 W/m2
09:08 20.8 °C 3.9 °C 1012.8 hPa Calm     33% 0 mm 248.0 W/m2
09:24 22.1 °C 1.7 °C 1012.8 hPa Calm     26% 0 mm 230.0 W/m2
09:38 22.8 °C 1.2 °C 1012.8 hPa Calm     24% 0 mm 227.0 W/m2
09:47 23.2 °C 0.9 °C 1012.8 hPa Calm     23% 0 mm 408.0 W/m2
09:59 23.5 °C 1.8 °C 1012.8 hPa Calm     24% 0 mm 540.0 W/m2
10:07 23.6 °C 1.3 °C 1012.8 hPa Calm     23% 0 mm 522.0 W/m2
10:19 24.2 °C 1.8 °C 1012.8 hPa Calm     23% 0 mm 550.0 W/m2
10:28 24.3 °C 1.8 °C 1012.4 hPa Calm     23% 0 mm 338.0 W/m2
10:35 24.2 °C 4.5 °C 1013.4 hPa SSW 17.7 km/h 25.7 km/h 28% 0 mm 568.0 W/m2
10:49 23.3 °C 5.7 °C 1013.1 hPa SW 16.3 km/h 24.1 km/h 32% 0 mm 573.0 W/m2
11:10 23.3 °C 6.1 °C 1013.1 hPa SW 13 km/h 22.5 km/h 33% 0 mm 578.0 W/m2
11:36 22.9 °C 6.6 °C 1013.4 hPa SSW 27.4 km/h 29 km/h 35% 0 mm 649.0 W/m2
11:45 22.4 °C 5.8 °C 1013.4 hPa SSW 24.1 km/h 33.8 km/h 34% 0 mm 754.0 W/m2
12:15 21.6 °C 5.1 °C 1013.8 hPa SSW 27.4 km/h 40.2 km/h 34% 0 mm 471.0 W/m2
12:22 21.6 °C 5.1 °C 1013.8 hPa SSW 27.4 km/h 40.2 km/h 34% 0 mm 471.0 W/m2
12:30 21.6 °C 5.5 °C 1013.8 hPa SSW 43.6 km/h 43.6 km/h 35% 0 mm 552.0 W/m2
12:50 21.6 °C 4.2 °C 1013.8 hPa SSW 30.6 km/h 37 km/h 32% 0 mm 417.0 W/m2
13:15 20.1 °C 4.6 °C 1013.4 hPa South 27.4 km/h 30.6 km/h 36% 0 mm 167.0 W/m2
13:36 19.5 °C 5.2 °C 1013.4 hPa SSW 20.9 km/h 32.2 km/h 39% 0 mm 185.0 W/m2
14:23 20.1 °C 5.3 °C 1014.1 hPa South 25.9 km/h 32.2 km/h 38% 0 mm 353.0 W/m2
14:37 20.3 °C 5.5 °C 1014.1 hPa South 20.9 km/h 40.2 km/h 38% 0 mm 571.0 W/m2
15:07 21.4 °C 4.9 °C 1014.1 hPa SSW 33.8 km/h 33.8 km/h 34% 0 mm 617.0 W/m2
15:49 21.9 °C 5.3 °C 1014.4 hPa SSW 25.9 km/h 35.4 km/h 34% 0 mm 396.0 W/m2
15:59 21.6 °C 5.5 °C 1014.4 hPa South 35.2 km/h 37 km/h 35% 0 mm 413.0 W/m2
16:14 21.5 °C 5.4 °C 1014.4 hPa SSW 30.6 km/h 37 km/h 35% 0 mm 362.0 W/m2
16:26 21.6 °C 5.5 °C 1014.4 hPa South 27.4 km/h 33.8 km/h 35% 0 mm 332.0 W/m2
16:35 21.7 °C 5.6 °C 1014.4 hPa South 20.9 km/h 32.2 km/h 35% 0 mm 301.0 W/m2
16:58 21.8 °C 5.2 °C 1014.8 hPa South 28.8 km/h 33.8 km/h 34% 0 mm 244.0 W/m2
17:12 21.6 °C 6.3 °C 1015.1 hPa SSW 19.5 km/h 29 km/h 37% 0 mm 197.0 W/m2
17:28 21.2 °C 7.1 °C 1015.1 hPa SSW 20.9 km/h 27.4 km/h 40% 0 mm 158.0 W/m2
17:58 20.9 °C 7.2 °C 1015.5 hPa SSW 25.9 km/h 32.2 km/h 41% 0 mm 76.0 W/m2
18:13 20.6 °C 7.6 °C 1015.5 hPa South 27.4 km/h 30.6 km/h 43% 0 mm 42.0 W/m2
18:38 20 °C 7.7 °C 1015.8 hPa South 17.7 km/h 25.7 km/h 45% 0 mm 11.0 W/m2
18:53 19.7 °C 7.8 °C 1016.1 hPa South 28.8 km/h 29 km/h 46% 0 mm 0.0 W/m2
19:08 19.4 °C 7.8 °C 1016.1 hPa South 20.9 km/h 22.5 km/h 47% 0 mm 0.0 W/m2
20:30 17.3 °C 9 °C 1017.2 hPa SSW 16.3 km/h 19.3 km/h 58% 0 mm 0.0 W/m2
20:45 17.1 °C 8.8 °C 1017.2 hPa SSW 19.5 km/h 20.9 km/h 58% 0 mm 0.0 W/m2
20:59 16.9 °C 8.8 °C 1017.5 hPa SSW 14.3 km/h 20.9 km/h 59% 0 mm 0.0 W/m2
21:13 16.8 °C 9 °C 1017.5 hPa SSW 20.9 km/h 20.9 km/h 60% 0 mm 0.0 W/m2
21:24 16.6 °C 8.8 °C 1017.5 hPa SSW 11.1 km/h 17.7 km/h 60% 0 mm 0.0 W/m2
21:36 16.3 °C 9 °C 1017.8 hPa SSW 14.3 km/h 20.9 km/h 62% 0 mm 0.0 W/m2
Canyon Roadhouse, Fishriver Canyon, Namibia
Compliments of Weather Underground - 2.25 mb